Latest Coastal Weather Observations for Maria Island

IDT60701

Issued at 9:02 am EST Monday 2 May 2016 (issued every 10 minutes, with the page automatically refreshed every 10 minutes)

About coastal observations | Map of coastal stations | Coastal observations for TAS | Marine services | Other Formats
Station Details ID: 092124 Name: MARIA ISLAND (POINT LESUEUR) Lat: -42.66 Lon: 148.02 Height: 28.0 m
Data from the previous 72 hours. | See also: Recent months at Maria Island
Date/Time
EST
Temp

°C
Wind Pressure Rain
since 9am
mm
Weather Cloud Vis
km
Sea
Height
m
Swell
Dir
 
Speed
knots
Gust
knots
hPa Trend Height
m
Period
s
Dir
02/09:00am 10.8 N 19 22 1002.8 - 3.6 - - - - - - -
02/08:30am 10.8 N 21 24 1002.9 - 3.6 - - - - - - -
02/08:00am 11.0 N 16 19 1003.1 - 3.6 - - - - - - -
02/07:30am 11.0 N 11 14 1003.0 - 3.6 - - - - - - -
02/07:00am 10.9 NW 10 13 1002.9 - 3.6 - - - - - - -
02/06:30am 10.6 WNW 11 16 1002.9 - 3.6 - - - - - - -
02/06:00am 10.6 NW 13 16 1003.0 - 3.6 - - - - - - -
02/05:30am 10.3 WNW 12 16 1002.9 - 3.6 - - - - - - -
02/05:00am 10.4 WNW 11 17 1002.9 - 3.6 - - - - - - -
02/04:30am 10.2 WNW 13 17 1002.4 - 3.6 - - - - - - -
02/04:00am 10.1 WNW 11 16 1002.4 - 3.6 - - - - - - -
02/03:30am 9.9 NW 10 13 1002.6 - 3.6 - - - - - - -
02/03:00am 9.9 WNW 13 16 1002.4 - 3.6 - - - - - - -
02/02:30am 9.8 WNW 13 19 1002.2 - 3.6 - - - - - - -
02/02:00am 10.3 WNW 16 24 1001.8 - 3.6 - - - - - - -
02/01:30am 10.2 W 17 21 1001.6 - 3.6 - - - - - - -
02/01:00am 10.2 WNW 14 20 1001.4 - 3.6 - - - - - - -
02/12:30am 10.4 WNW 17 24 1000.8 - 3.6 - - - - - - -
02/12:00am 10.8 W 23 29 1000.4 - 3.6 - - - - - - -
 
Date/Time
EST
Temp

°C
Wind Pressure Rain
since 9am
mm
Weather Cloud Vis
km
Sea
Height
m
Swell
Dir
 
Speed
knots
Gust
knots
hPa Trend Height
m
Period
s
Dir
01/11:30pm 10.6 W 23 33 1000.2 - 3.6 - - - - - - -
01/11:11pm 10.6 W 24 35 999.8 - 3.6 - - - - - - -
01/11:00pm 11.1 W 24 31 999.7 - 3.6 - - - - - - -
01/10:35pm 11.2 W 21 32 998.9 - 3.6 - - - - - - -
01/10:30pm 11.2 W 20 30 999.1 - 3.6 - - - - - - -
01/10:17pm 11.2 W 22 33 998.9 - 3.6 - - - - - - -
01/10:00pm 11.6 W 20 28 998.5 - 3.6 - - - - - - -
01/09:30pm 12.0 W 17 27 998.0 - 3.6 - - - - - - -
01/09:17pm 12.0 W 18 29 997.7 - 3.6 - - - - - - -
01/09:00pm 12.1 W 19 27 997.3 - 3.6 Recent precip. - - - - - -
01/08:33pm 12.0 W 20 32 995.9 - 3.6 - - - - - - -
01/08:30pm 11.9 W 21 27 996.1 - 3.6 - - - - - - -
01/08:10pm 11.8 W 19 29 995.5 - 3.6 - - - - - - -
01/08:00pm 11.7 W 17 23 995.0 - 3.4 - - - - - - -
01/07:30pm 11.2 W 18 25 994.1 - 3.4 - - - - - - -
01/07:16pm 11.1 W 21 31 993.6 - 3.4 - - - - - - -
01/07:00pm 11.2 W 21 30 992.9 - 3.2 - - - - - - -
01/06:30pm 11.7 W 24 30 991.6 - 2.8 - - - - - - -
01/06:18pm 11.8 W 31 41 990.7 - 2.6 - - - - - - -
01/06:08pm 12.3 W 30 43 989.6 - 2.4 - - - - - - -
01/06:03pm 12.8 W 23 33 989.8 - 2.0 - - - - - - -
01/06:00pm 13.0 W 22 32 989.8 - 2.0 - - - - - - -
01/05:30pm 13.9 WNW 21 27 988.8 - 2.0 - - - - - - -
01/05:00pm 15.0 WNW 17 23 987.7 - 2.0 - - - - - - -
01/04:30pm 14.8 NNW 11 15 987.2 - 2.0 - - - - - - -
01/04:00pm 15.2 NNW 11 13 987.2 - 2.0 - - - - - - -
01/03:30pm 14.9 N 13 15 987.1 - 2.0 - - - - - - -
01/03:00pm 14.9 N 18 23 986.6 - 2.0 - - - - - - -
01/02:30pm 15.0 N 10 13 987.0 - 2.0 - - - - - - -
01/02:00pm 15.0 N 13 16 987.8 - 2.0 - - - - - - -
01/01:30pm 14.6 N 15 19 988.6 - 2.0 - - - - - - -
01/01:00pm 14.3 N 15 19 989.5 - 2.0 - - - - - - -
01/12:30pm 14.7 NNW 20 25 990.5 - 2.0 - - - - - - -
01/12:14pm 13.4 N 17 34 991.6 - 2.0 - - - - - - -
01/12:12pm 13.4 N 13 34 992.1 - 2.0 - - - - - - -
01/12:00pm 15.8 N 9 10 991.7 - 1.4 - - - - - - -
01/11:30am 16.3 NNW 8 9 992.6 - 1.4 - - - - - - -
01/11:00am 15.6 NNW 8 10 992.8 - 1.4 - - - - - - -
01/10:30am 15.4 N 9 11 993.3 - 1.4 - - - - - - -
01/10:00am 15.2 NNW 20 27 995.1 - 1.0 - - - - - - -
01/09:40am 15.4 NNW 19 28 994.9 - 0.2 - - - - - - -
01/09:30am 15.9 N 17 21 995.4 - 0.0 - - - - - - -
01/09:06am 16.7 N 15 25 995.8 - 0.0 - - - - - - -
01/09:00am 16.8 N 7 14 995.6 - 0.4 - - - - - - -
01/08:30am 16.4 N 12 13 996.3 - 0.4 - - - - - - -
01/08:00am 17.5 N 18 22 997.0 - 0.4 - - - - - - -
01/07:30am 16.8 N 10 13 997.2 - 0.4 - - - - - - -
01/07:00am 16.6 N 15 17 998.0 - 0.4 - - - - - - -
01/06:30am 16.7 N 14 17 998.7 - 0.4 - - - - - - -
01/06:00am 17.4 NNE 15 18 999.1 - 0.4 - - - - - - -
01/05:30am 17.2 NNE 15 19 1000.1 - 0.4 - - - - - - -
01/05:00am 17.1 NNE 17 20 1000.5 - 0.4 - - - - - - -
01/04:57am 17.0 NNE 16 20 1000.6 - 0.4 - - - - - - -
01/04:30am 16.4 NNW 7 10 1001.8 - 0.4 - - - - - - -
01/04:00am 15.8 NW 5 9 1002.2 - 0.4 - - - - - - -
01/03:30am 16.6 N 12 13 1002.0 - 0.4 - - - - - - -
01/03:00am 16.0 NNW 7 8 1002.5 - 0.2 Recent precip. - - - - - -
01/02:30am 16.1 NW 6 9 1003.5 - 0.2 - - - - - - -
01/02:00am 17.3 N 14 16 1003.9 - 0.0 - - - - - - -
01/01:30am 16.9 N 10 13 1004.6 - 0.0 - - - - - - -
01/01:00am 16.9 N 13 15 1005.3 - 0.0 - - - - - - -
01/12:30am 16.6 NW 12 18 1006.1 - 0.0 - - - - - - -
01/12:00am 17.5 N 16 20 1005.7 - 0.0 - - - - - - -
 
Date/Time
EST
Temp

°C
Wind Pressure Rain
since 9am
mm
Weather Cloud Vis
km
Sea
Height
m
Swell
Dir
 
Speed
knots
Gust
knots
hPa Trend Height
m
Period
s
Dir
30/11:30pm 17.5 N 18 22 1006.0 - 0.0 - - - - - - -
30/11:00pm 17.2 N 16 18 1006.6 - 0.0 - - - - - - -
30/10:30pm 17.3 N 16 19 1007.2 - 0.0 - - - - - - -
30/10:00pm 17.4 N 17 20 1007.4 - 0.0 - - - - - - -
30/09:30pm 17.4 N 14 16 1007.7 - 0.0 - - - - - - -
30/09:00pm 18.1 N 14 18 1007.8 - 0.0 - - - - - - -
30/08:30pm 18.2 N 16 19 1007.7 - 0.0 - - - - - - -
30/08:00pm 18.0 N 16 20 1008.0 - 0.0 - - - - - - -
30/07:30pm 18.2 N 19 24 1007.9 - 0.0 - - - - - - -
30/07:00pm 18.0 N 17 20 1008.0 - 0.0 - - - - - - -
30/06:30pm 18.3 N 20 25 1007.7 - 0.0 - - - - - - -
30/06:00pm 18.5 N 21 25 1007.6 - 0.0 - - - - - - -
30/05:30pm 18.6 N 21 24 1007.6 - 0.0 - - - - - - -
30/05:00pm 18.6 N 18 22 1007.6 - 0.0 - - - - - - -
30/04:30pm 19.0 N 18 22 1007.4 - 0.0 - - - - - - -
30/04:00pm 19.1 N 17 20 1007.6 - 0.0 - - - - - - -
30/03:30pm 19.5 N 15 18 1007.7 - 0.0 - - - - - - -
30/03:00pm 19.1 N 15 22 1008.1 - 0.0 - - - - - - -
30/02:30pm 19.0 N 15 17 1008.0 - 0.0 - - - - - - -
30/02:00pm 18.7 NNE 18 20 1008.1 - 0.0 - - - - - - -
30/01:30pm 18.8 N 16 20 1008.4 - 0.0 - - - - - - -
30/01:00pm 19.6 N 18 22 1008.3 - 0.0 - - - - - - -
30/12:30pm 19.1 N 19 22 1008.8 - 0.0 - - - - - - -
30/12:00pm 19.8 N 19 23 1009.5 - 0.0 - - - - - - -
30/11:30am 19.2 N 19 24 1010.3 - 0.0 - - - - - - -
30/11:00am 19.2 N 15 20 1010.7 - 0.0 - - - - - - -
30/10:30am 19.2 N 10 13 1011.0 - 0.0 - - - - - - -
30/10:00am 17.8 NNE 8 10 1011.6 - 0.0 - - - - - - -
30/09:30am 17.7 N 6 9 1011.9 - 0.0 - - - - - - -
30/09:00am 17.0 N 9 12 1012.0 - 0.0 - - - - - - -
30/08:30am 16.2 NNW 9 11 1012.0 - 0.0 - - - - - - -
30/08:00am 15.7 NNW 10 15 1012.2 - 0.0 - - - - - - -
30/07:30am 14.9 N 8 9 1012.0 - 0.0 - - - - - - -
30/07:00am 14.3 N 5 6 1011.7 - 0.0 - - - - - - -
30/06:30am 14.0 NNW 4 5 1011.6 - 0.0 - - - - - - -
30/06:00am 14.0 W 4 5 1011.5 - 0.0 - - - - - - -
30/05:30am 14.0 W 5 7 1011.4 - 0.0 - - - - - - -
30/05:00am 15.1 NW 11 14 1011.2 - 0.0 - - - - - - -
30/04:30am 15.5 NW 12 13 1010.9 - 0.0 - - - - - - -
30/04:00am 15.6 NNW 13 16 1010.5 - 0.0 - - - - - - -
30/03:30am 15.6 NW 9 11 1010.5 - 0.0 - - - - - - -
30/03:00am 15.6 NW 10 13 1010.5 - 0.0 - - - - - - -
30/02:30am 16.2 NW 14 17 1010.4 - 0.0 - - - - - - -
30/02:00am 16.2 NNW 13 15 1010.2 - 0.0 - - - - - - -
30/01:30am 16.3 NNW 10 13 1010.1 - 0.0 - - - - - - -
30/01:00am 16.8 N 14 19 1010.0 - 0.0 - - - - - - -
30/12:30am 17.1 N 13 21 1010.0 - 0.0 - - - - - - -
30/12:00am 16.8 N 16 19 1009.8 - 0.0 - - - - - - -
 
Date/Time
EST
Temp

°C
Wind Pressure Rain
since 9am
mm
Weather Cloud Vis
km
Sea
Height
m
Swell
Dir
 
Speed
knots
Gust
knots
hPa Trend Height
m
Period
s
Dir
29/11:30pm 16.6 NNW 11 13 1009.8 - 0.0 - - - - - - -
29/11:00pm 16.8 NNW 14 19 1009.7 - 0.0 - - - - - - -
29/10:30pm 16.8 N 14 17 1010.0 - 0.0 - - - - - - -
29/10:00pm 16.9 N 11 14 1010.1 - 0.0 - - - - - - -
29/09:30pm 17.1 N 17 21 1009.9 - 0.0 - - - - - - -
29/09:00pm 17.4 N 17 21 1009.8 - 0.0 - - - - - - -
29/08:30pm 17.5 N 18 22 1008.9 - 0.0 - - - - - - -
29/08:00pm 17.6 N 18 23 1008.4 - 0.0 - - - - - - -
29/07:30pm 17.6 N 19 23 1008.7 - 0.0 - - - - - - -
29/07:00pm 17.8 N 20 25 1008.7 - 0.0 - - - - - - -
29/06:30pm 18.3 NNW 22 30 1009.1 - 0.0 - - - - - - -
29/06:23pm 18.3 NNW 24 30 1008.9 - 0.0 - - - - - - -
29/06:00pm 18.5 NNW 16 19 1009.2 - 0.0 - - - - - - -
29/05:30pm 18.6 N 18 22 1008.9 - 0.0 - - - - - - -
29/05:00pm 18.9 N 24 32 1008.5 - 0.0 - - - - - - -
29/04:30pm 19.4 NNW 23 31 1008.1 - 0.0 - - - - - - -
29/04:00pm 19.2 NNW 20 24 1008.5 - 0.0 - - - - - - -
29/03:30pm 19.7 N 18 22 1008.8 - 0.0 - - - - - - -
29/03:00pm 19.1 N 13 16 1009.0 - 0.0 - - - - - - -
29/02:30pm 18.6 N 14 15 1009.0 - 0.0 - - - - - - -
29/02:00pm 19.0 N 13 15 1009.1 - 0.0 - - - - - - -
29/01:30pm 19.3 N 10 12 1009.3 - 0.0 - - - - - - -
29/01:00pm 19.1 NNE 11 14 1009.9 - 0.0 - - - - - - -
29/12:30pm 19.2 N 13 17 1010.6 - 0.0 - - - - - - -
29/12:00pm 18.9 N 12 15 1011.2 - 0.0 - - - - - - -
29/11:30am 17.9 N 12 15 1012.0 - 0.0 - - - - - - -
29/11:00am 17.1 N 14 15 1012.3 - 0.0 - - - - - - -
29/10:30am 16.8 N 13 15 1012.9 - 0.0 - - - - - - -
29/10:00am 16.4 N 14 16 1013.3 - 0.0 - - - - - - -
29/09:30am 16.1 N 15 17 1014.1 - 0.0 - - - - - - -

Other Formats:

Comma delimited format used in spreadsheet applications
http://www.bom.gov.au/fwo/IDT60701/IDT60701.95988.axf

JavaScript Object Notation format (JSON) in row-major order
http://www.bom.gov.au/fwo/IDT60701/IDT60701.95988.json